Terminal Aerodrome Forecast
Issued by NWS

Home | Current Version | Previous Version | Text Only | Print | Product List | Glossary On
Versions: 1 2 3 4 5 6 7 8 9 10 11 12 13 14 15 16 17 18 19 20 21 22 23
585
FTUS43 KDLH 222101 AAC
TAFHIB
TAF AMD
KHIB 222101Z 2221/2318 18010G20KT P6SM SCT250
     FM230200 16006KT P6SM SCT050 BKN250
     FM230800 15006KT P6SM VCSH BKN050 PROB30 2310/2312 -TSRA
      BKN025CB
     FM231400 19010G20KT P6SM VCSH BKN027=

USA.gov is the U.S. government's official web portal to all federal, state and local government web resources and services.